sensor_id;sensor_type;location;lat;lon;timestamp;P1;durP1;ratioP1;P2;durP2;ratioP2
56005;SDS011;41888;44.696;10.522;2022-10-16T00:00:44;17.08;;;12.13;;
56005;SDS011;41888;44.696;10.522;2022-10-16T00:03:11;23.42;;;13.65;;
56005;SDS011;41888;44.696;10.522;2022-10-16T00:05:41;22.67;;;12.98;;
56005;SDS011;41888;44.696;10.522;2022-10-16T00:08:09;23.30;;;12.00;;
56005;SDS011;41888;44.696;10.522;2022-10-16T00:10:36;20.83;;;12.32;;
56005;SDS011;41888;44.696;10.522;2022-10-16T00:13:02;22.25;;;14.18;;
56005;SDS011;41888;44.696;10.522;2022-10-16T00:15:29;19.27;;;12.65;;
56005;SDS011;41888;44.696;10.522;2022-10-16T00:17:58;24.80;;;13.10;;
56005;SDS011;41888;44.696;10.522;2022-10-16T00:20:24;20.67;;;13.23;;
56005;SDS011;41888;44.696;10.522;2022-10-16T00:22:50;20.67;;;12.68;;
56005;SDS011;41888;44.696;10.522;2022-10-16T00:25:16;23.10;;;13.55;;
56005;SDS011;41888;44.696;10.522;2022-10-16T00:27:42;23.08;;;13.30;;
56005;SDS011;41888;44.696;10.522;2022-10-16T00:30:09;23.05;;;12.85;;
56005;SDS011;41888;44.696;10.522;2022-10-16T00:32:35;25.58;;;13.52;;
56005;SDS011;41888;44.696;10.522;2022-10-16T00:35:01;21.40;;;13.75;;
56005;SDS011;41888;44.696;10.522;2022-10-16T00:37:28;19.42;;;11.95;;
56005;SDS011;41888;44.696;10.522;2022-10-16T00:39:55;24.88;;;13.35;;
56005;SDS011;41888;44.696;10.522;2022-10-16T00:42:21;23.65;;;12.75;;
56005;SDS011;41888;44.696;10.522;2022-10-16T00:44:52;22.85;;;13.18;;
56005;SDS011;41888;44.696;10.522;2022-10-16T00:47:30;21.63;;;13.20;;
56005;SDS011;41888;44.696;10.522;2022-10-16T00:50:40;20.05;;;12.18;;
56005;SDS011;41888;44.696;10.522;2022-10-16T00:52:49;18.23;;;12.00;;
56005;SDS011;41888;44.696;10.522;2022-10-16T00:55:16;20.88;;;12.43;;
56005;SDS011;41888;44.696;10.522;2022-10-16T00:57:43;22.63;;;12.52;;
56005;SDS011;41888;44.696;10.522;2022-10-16T01:00:13;20.33;;;11.93;;
56005;SDS011;41888;44.696;10.522;2022-10-16T01:02:42;18.13;;;12.32;;
56005;SDS011;41888;44.696;10.522;2022-10-16T01:05:08;17.73;;;11.82;;
56005;SDS011;41888;44.696;10.522;2022-10-16T01:10:10;22.33;;;12.63;;
56005;SDS011;41888;44.696;10.522;2022-10-16T01:12:55;18.02;;;12.07;;
56005;SDS011;41888;44.696;10.522;2022-10-16T01:18:26;19.55;;;12.07;;
56005;SDS011;41888;44.696;10.522;2022-10-16T01:21:05;20.60;;;11.90;;
56005;SDS011;41888;44.696;10.522;2022-10-16T01:29:20;21.60;;;12.45;;
56005;SDS011;41888;44.696;10.522;2022-10-16T01:31:57;19.70;;;13.35;;
56005;SDS011;41888;44.696;10.522;2022-10-16T01:34:32;18.65;;;11.82;;
56005;SDS011;41888;44.696;10.522;2022-10-16T01:37:12;21.55;;;12.63;;
56005;SDS011;41888;44.696;10.522;2022-10-16T01:39:44;20.52;;;12.13;;
56005;SDS011;41888;44.696;10.522;2022-10-16T01:42:14;21.17;;;13.20;;
56005;SDS011;41888;44.696;10.522;2022-10-16T01:44:46;21.05;;;12.15;;
56005;SDS011;41888;44.696;10.522;2022-10-16T01:47:16;22.05;;;13.18;;
56005;SDS011;41888;44.696;10.522;2022-10-16T01:49:47;19.30;;;12.45;;
56005;SDS011;41888;44.696;10.522;2022-10-16T01:52:17;21.67;;;12.55;;
56005;SDS011;41888;44.696;10.522;2022-10-16T01:54:49;21.92;;;13.13;;
56005;SDS011;41888;44.696;10.522;2022-10-16T01:57:19;17.63;;;12.48;;
56005;SDS011;41888;44.696;10.522;2022-10-16T01:59:47;21.10;;;13.20;;
56005;SDS011;41888;44.696;10.522;2022-10-16T02:02:18;22.25;;;12.95;;
56005;SDS011;41888;44.696;10.522;2022-10-16T02:04:48;23.17;;;12.63;;
56005;SDS011;41888;44.696;10.522;2022-10-16T02:07:26;22.88;;;13.30;;
56005;SDS011;41888;44.696;10.522;2022-10-16T02:09:53;21.45;;;13.07;;
56005;SDS011;41888;44.696;10.522;2022-10-16T02:12:30;20.38;;;13.02;;
56005;SDS011;41888;44.696;10.522;2022-10-16T02:14:59;28.05;;;13.88;;
56005;SDS011;41888;44.696;10.522;2022-10-16T02:17:25;23.15;;;14.70;;
56005;SDS011;41888;44.696;10.522;2022-10-16T02:19:52;21.75;;;12.70;;
56005;SDS011;41888;44.696;10.522;2022-10-16T02:22:38;22.90;;;12.43;;
56005;SDS011;41888;44.696;10.522;2022-10-16T02:25:12;26.58;;;13.65;;
56005;SDS011;41888;44.696;10.522;2022-10-16T02:27:53;20.83;;;13.38;;
56005;SDS011;41888;44.696;10.522;2022-10-16T02:33:05;18.98;;;13.43;;
56005;SDS011;41888;44.696;10.522;2022-10-16T02:35:35;25.60;;;13.50;;
56005;SDS011;41888;44.696;10.522;2022-10-16T02:38:02;21.98;;;13.15;;
56005;SDS011;41888;44.696;10.522;2022-10-16T02:40:29;21.67;;;13.52;;
56005;SDS011;41888;44.696;10.522;2022-10-16T02:42:56;21.38;;;13.68;;
56005;SDS011;41888;44.696;10.522;2022-10-16T02:45:23;22.23;;;13.32;;
56005;SDS011;41888;44.696;10.522;2022-10-16T02:47:49;23.83;;;14.43;;
56005;SDS011;41888;44.696;10.522;2022-10-16T02:50:16;19.25;;;13.30;;
56005;SDS011;41888;44.696;10.522;2022-10-16T02:52:42;26.08;;;13.52;;
56005;SDS011;41888;44.696;10.522;2022-10-16T02:55:09;20.40;;;11.90;;
56005;SDS011;41888;44.696;10.522;2022-10-16T02:57:35;23.58;;;14.48;;
56005;SDS011;41888;44.696;10.522;2022-10-16T03:00:03;22.50;;;13.30;;
56005;SDS011;41888;44.696;10.522;2022-10-16T03:02:30;24.35;;;13.68;;
56005;SDS011;41888;44.696;10.522;2022-10-16T03:04:56;21.55;;;13.38;;
56005;SDS011;41888;44.696;10.522;2022-10-16T03:07:22;22.75;;;14.48;;
56005;SDS011;41888;44.696;10.522;2022-10-16T03:09:48;24.48;;;12.88;;
56005;SDS011;41888;44.696;10.522;2022-10-16T03:12:14;23.25;;;13.25;;
56005;SDS011;41888;44.696;10.522;2022-10-16T03:14:41;23.88;;;14.40;;
56005;SDS011;41888;44.696;10.522;2022-10-16T03:17:07;26.88;;;14.48;;
56005;SDS011;41888;44.696;10.522;2022-10-16T03:19:33;31.13;;;15.57;;
56005;SDS011;41888;44.696;10.522;2022-10-16T03:22:00;21.58;;;13.38;;
56005;SDS011;41888;44.696;10.522;2022-10-16T03:24:27;21.80;;;13.45;;
56005;SDS011;41888;44.696;10.522;2022-10-16T03:26:53;23.85;;;13.93;;
56005;SDS011;41888;44.696;10.522;2022-10-16T03:29:19;24.85;;;14.95;;
56005;SDS011;41888;44.696;10.522;2022-10-16T03:31:45;25.90;;;15.73;;
56005;SDS011;41888;44.696;10.522;2022-10-16T03:34:13;25.55;;;14.55;;
56005;SDS011;41888;44.696;10.522;2022-10-16T03:36:39;26.33;;;15.82;;
56005;SDS011;41888;44.696;10.522;2022-10-16T03:39:05;25.00;;;14.65;;
56005;SDS011;41888;44.696;10.522;2022-10-16T03:41:32;26.70;;;15.07;;
56005;SDS011;41888;44.696;10.522;2022-10-16T03:43:58;27.83;;;13.95;;
56005;SDS011;41888;44.696;10.522;2022-10-16T03:46:24;24.60;;;14.18;;
56005;SDS011;41888;44.696;10.522;2022-10-16T03:48:50;24.13;;;14.40;;
56005;SDS011;41888;44.696;10.522;2022-10-16T03:51:16;25.27;;;15.15;;
56005;SDS011;41888;44.696;10.522;2022-10-16T03:53:43;29.10;;;15.48;;
56005;SDS011;41888;44.696;10.522;2022-10-16T03:56:09;26.63;;;15.50;;
56005;SDS011;41888;44.696;10.522;2022-10-16T03:58:35;24.52;;;14.45;;
56005;SDS011;41888;44.696;10.522;2022-10-16T04:01:01;23.77;;;14.02;;
56005;SDS011;41888;44.696;10.522;2022-10-16T04:03:27;24.38;;;14.35;;
56005;SDS011;41888;44.696;10.522;2022-10-16T04:05:54;27.92;;;14.80;;
56005;SDS011;41888;44.696;10.522;2022-10-16T04:08:20;29.23;;;15.65;;
56005;SDS011;41888;44.696;10.522;2022-10-16T04:10:46;31.00;;;16.23;;
56005;SDS011;41888;44.696;10.522;2022-10-16T04:13:12;27.98;;;15.90;;
56005;SDS011;41888;44.696;10.522;2022-10-16T04:15:39;31.05;;;15.82;;
56005;SDS011;41888;44.696;10.522;2022-10-16T04:18:06;28.75;;;15.88;;
56005;SDS011;41888;44.696;10.522;2022-10-16T04:20:32;27.10;;;16.15;;
56005;SDS011;41888;44.696;10.522;2022-10-16T04:22:59;32.40;;;16.63;;
56005;SDS011;41888;44.696;10.522;2022-10-16T04:25:25;23.92;;;14.02;;
56005;SDS011;41888;44.696;10.522;2022-10-16T04:27:54;29.92;;;15.70;;
56005;SDS011;41888;44.696;10.522;2022-10-16T04:30:21;27.42;;;15.82;;
56005;SDS011;41888;44.696;10.522;2022-10-16T04:32:48;30.65;;;17.63;;
56005;SDS011;41888;44.696;10.522;2022-10-16T04:35:15;29.75;;;16.33;;
56005;SDS011;41888;44.696;10.522;2022-10-16T04:37:42;28.10;;;16.38;;
56005;SDS011;41888;44.696;10.522;2022-10-16T04:40:08;28.00;;;15.75;;
56005;SDS011;41888;44.696;10.522;2022-10-16T04:42:35;26.48;;;16.50;;
56005;SDS011;41888;44.696;10.522;2022-10-16T04:45:01;24.98;;;15.13;;
56005;SDS011;41888;44.696;10.522;2022-10-16T04:47:28;30.52;;;16.20;;
56005;SDS011;41888;44.696;10.522;2022-10-16T04:49:54;29.50;;;16.13;;
56005;SDS011;41888;44.696;10.522;2022-10-16T04:52:21;27.42;;;15.65;;
56005;SDS011;41888;44.696;10.522;2022-10-16T04:54:49;25.90;;;15.35;;
56005;SDS011;41888;44.696;10.522;2022-10-16T04:57:16;27.58;;;16.85;;
56005;SDS011;41888;44.696;10.522;2022-10-16T04:59:42;27.55;;;15.80;;
56005;SDS011;41888;44.696;10.522;2022-10-16T05:02:08;31.40;;;16.63;;
56005;SDS011;41888;44.696;10.522;2022-10-16T05:04:35;30.30;;;16.67;;
56005;SDS011;41888;44.696;10.522;2022-10-16T05:07:01;27.73;;;16.38;;
56005;SDS011;41888;44.696;10.522;2022-10-16T05:09:27;30.30;;;16.48;;
56005;SDS011;41888;44.696;10.522;2022-10-16T05:11:53;24.75;;;16.17;;
56005;SDS011;41888;44.696;10.522;2022-10-16T05:14:19;33.45;;;16.45;;
56005;SDS011;41888;44.696;10.522;2022-10-16T05:16:45;28.45;;;16.23;;
56005;SDS011;41888;44.696;10.522;2022-10-16T05:19:13;25.38;;;15.23;;
56005;SDS011;41888;44.696;10.522;2022-10-16T05:21:39;28.05;;;16.58;;
56005;SDS011;41888;44.696;10.522;2022-10-16T05:24:05;22.65;;;14.68;;
56005;SDS011;41888;44.696;10.522;2022-10-16T05:26:31;25.42;;;14.10;;
56005;SDS011;41888;44.696;10.522;2022-10-16T05:28:57;23.83;;;13.95;;
56005;SDS011;41888;44.696;10.522;2022-10-16T05:31:24;28.55;;;14.15;;
56005;SDS011;41888;44.696;10.522;2022-10-16T05:33:50;23.70;;;14.60;;
56005;SDS011;41888;44.696;10.522;2022-10-16T05:36:16;24.83;;;14.60;;
56005;SDS011;41888;44.696;10.522;2022-10-16T05:38:43;25.63;;;14.60;;
56005;SDS011;41888;44.696;10.522;2022-10-16T05:41:09;23.67;;;14.27;;
56005;SDS011;41888;44.696;10.522;2022-10-16T05:43:35;24.45;;;13.80;;
56005;SDS011;41888;44.696;10.522;2022-10-16T05:46:03;28.02;;;13.57;;
56005;SDS011;41888;44.696;10.522;2022-10-16T05:48:30;20.50;;;13.38;;
56005;SDS011;41888;44.696;10.522;2022-10-16T05:50:58;24.23;;;13.95;;
56005;SDS011;41888;44.696;10.522;2022-10-16T05:53:26;20.88;;;12.68;;
56005;SDS011;41888;44.696;10.522;2022-10-16T05:55:54;21.50;;;12.50;;
56005;SDS011;41888;44.696;10.522;2022-10-16T05:58:21;22.63;;;13.25;;
56005;SDS011;41888;44.696;10.522;2022-10-16T06:00:54;21.60;;;13.85;;
56005;SDS011;41888;44.696;10.522;2022-10-16T06:03:25;19.98;;;12.07;;
56005;SDS011;41888;44.696;10.522;2022-10-16T06:05:52;19.45;;;12.27;;
56005;SDS011;41888;44.696;10.522;2022-10-16T06:08:19;21.15;;;12.32;;
56005;SDS011;41888;44.696;10.522;2022-10-16T06:10:47;18.70;;;11.00;;
56005;SDS011;41888;44.696;10.522;2022-10-16T06:13:14;16.10;;;10.73;;
56005;SDS011;41888;44.696;10.522;2022-10-16T06:15:41;18.15;;;10.52;;
56005;SDS011;41888;44.696;10.522;2022-10-16T06:18:08;17.55;;;10.20;;
56005;SDS011;41888;44.696;10.522;2022-10-16T06:20:35;16.35;;;10.63;;
56005;SDS011;41888;44.696;10.522;2022-10-16T06:23:02;16.40;;;9.05;;
56005;SDS011;41888;44.696;10.522;2022-10-16T06:25:29;16.48;;;10.15;;
56005;SDS011;41888;44.696;10.522;2022-10-16T06:27:56;15.40;;;8.93;;
56005;SDS011;41888;44.696;10.522;2022-10-16T06:30:22;13.65;;;9.00;;
56005;SDS011;41888;44.696;10.522;2022-10-16T06:32:48;13.10;;;8.60;;
56005;SDS011;41888;44.696;10.522;2022-10-16T06:35:14;11.60;;;7.70;;
56005;SDS011;41888;44.696;10.522;2022-10-16T06:37:41;14.60;;;9.40;;
56005;SDS011;41888;44.696;10.522;2022-10-16T06:40:07;14.05;;;9.45;;
56005;SDS011;41888;44.696;10.522;2022-10-16T06:42:33;15.35;;;9.63;;
56005;SDS011;41888;44.696;10.522;2022-10-16T06:44:59;20.75;;;10.52;;
56005;SDS011;41888;44.696;10.522;2022-10-16T06:47:27;13.80;;;8.75;;
56005;SDS011;41888;44.696;10.522;2022-10-16T06:49:53;15.93;;;8.48;;
56005;SDS011;41888;44.696;10.522;2022-10-16T06:52:19;16.17;;;9.35;;
56005;SDS011;41888;44.696;10.522;2022-10-16T06:54:45;15.38;;;10.27;;
56005;SDS011;41888;44.696;10.522;2022-10-16T06:57:11;16.98;;;8.55;;
56005;SDS011;41888;44.696;10.522;2022-10-16T06:59:38;11.27;;;8.55;;
56005;SDS011;41888;44.696;10.522;2022-10-16T07:02:04;14.60;;;9.02;;
56005;SDS011;41888;44.696;10.522;2022-10-16T07:04:31;16.02;;;8.93;;
56005;SDS011;41888;44.696;10.522;2022-10-16T07:06:59;13.00;;;9.25;;
56005;SDS011;41888;44.696;10.522;2022-10-16T07:09:26;16.55;;;9.38;;
56005;SDS011;41888;44.696;10.522;2022-10-16T07:11:52;14.73;;;9.07;;
56005;SDS011;41888;44.696;10.522;2022-10-16T07:14:19;14.75;;;9.45;;
56005;SDS011;41888;44.696;10.522;2022-10-16T07:16:46;17.77;;;9.25;;
56005;SDS011;41888;44.696;10.522;2022-10-16T07:19:12;17.33;;;9.52;;
56005;SDS011;41888;44.696;10.522;2022-10-16T07:21:41;14.57;;;9.40;;
56005;SDS011;41888;44.696;10.522;2022-10-16T07:24:12;13.18;;;8.10;;
56005;SDS011;41888;44.696;10.522;2022-10-16T07:26:40;18.52;;;9.38;;
56005;SDS011;41888;44.696;10.522;2022-10-16T07:29:19;16.88;;;9.70;;
56005;SDS011;41888;44.696;10.522;2022-10-16T07:31:46;19.05;;;9.73;;
56005;SDS011;41888;44.696;10.522;2022-10-16T07:34:13;20.80;;;10.85;;
56005;SDS011;41888;44.696;10.522;2022-10-16T07:36:41;19.02;;;10.25;;
56005;SDS011;41888;44.696;10.522;2022-10-16T07:39:07;19.63;;;11.18;;
56005;SDS011;41888;44.696;10.522;2022-10-16T07:41:34;21.70;;;11.15;;
56005;SDS011;41888;44.696;10.522;2022-10-16T07:44:02;18.63;;;11.00;;
56005;SDS011;41888;44.696;10.522;2022-10-16T07:46:29;21.10;;;11.57;;
56005;SDS011;41888;44.696;10.522;2022-10-16T07:48:56;22.05;;;13.35;;
56005;SDS011;41888;44.696;10.522;2022-10-16T07:51:22;20.67;;;13.27;;
56005;SDS011;41888;44.696;10.522;2022-10-16T07:53:50;21.20;;;13.75;;
56005;SDS011;41888;44.696;10.522;2022-10-16T07:56:17;19.90;;;12.02;;
56005;SDS011;41888;44.696;10.522;2022-10-16T07:58:44;24.75;;;14.63;;
56005;SDS011;41888;44.696;10.522;2022-10-16T08:01:12;21.40;;;12.07;;
56005;SDS011;41888;44.696;10.522;2022-10-16T08:03:46;20.05;;;12.50;;
56005;SDS011;41888;44.696;10.522;2022-10-16T08:06:14;20.77;;;11.60;;
56005;SDS011;41888;44.696;10.522;2022-10-16T08:08:41;20.00;;;13.23;;
56005;SDS011;41888;44.696;10.522;2022-10-16T08:11:08;21.02;;;12.68;;
56005;SDS011;41888;44.696;10.522;2022-10-16T08:13:34;24.00;;;12.23;;
56005;SDS011;41888;44.696;10.522;2022-10-16T08:16:01;22.75;;;12.30;;
56005;SDS011;41888;44.696;10.522;2022-10-16T08:18:28;17.30;;;10.93;;
56005;SDS011;41888;44.696;10.522;2022-10-16T08:20:55;20.95;;;11.90;;
56005;SDS011;41888;44.696;10.522;2022-10-16T08:23:23;19.10;;;11.25;;
56005;SDS011;41888;44.696;10.522;2022-10-16T08:25:51;18.88;;;11.15;;
56005;SDS011;41888;44.696;10.522;2022-10-16T08:28:18;20.35;;;12.10;;
56005;SDS011;41888;44.696;10.522;2022-10-16T08:30:44;18.55;;;12.52;;
56005;SDS011;41888;44.696;10.522;2022-10-16T08:33:11;20.58;;;12.55;;
56005;SDS011;41888;44.696;10.522;2022-10-16T08:35:37;16.30;;;11.88;;
56005;SDS011;41888;44.696;10.522;2022-10-16T08:38:03;18.25;;;12.65;;
56005;SDS011;41888;44.696;10.522;2022-10-16T08:40:31;17.33;;;11.82;;
56005;SDS011;41888;44.696;10.522;2022-10-16T08:48:15;17.50;;;11.48;;
56005;SDS011;41888;44.696;10.522;2022-10-16T08:50:56;20.88;;;11.68;;
56005;SDS011;41888;44.696;10.522;2022-10-16T08:53:30;18.30;;;11.95;;
56005;SDS011;41888;44.696;10.522;2022-10-16T08:56:24;16.95;;;11.82;;
56005;SDS011;41888;44.696;10.522;2022-10-16T08:58:51;18.48;;;12.77;;
56005;SDS011;41888;44.696;10.522;2022-10-16T09:01:19;20.33;;;13.32;;
56005;SDS011;41888;44.696;10.522;2022-10-16T09:04:01;23.23;;;13.43;;
56005;SDS011;41888;44.696;10.522;2022-10-16T09:09:20;20.67;;;12.63;;
56005;SDS011;41888;44.696;10.522;2022-10-16T09:16:57;18.95;;;13.52;;
56005;SDS011;41888;44.696;10.522;2022-10-16T09:21:54;16.77;;;12.23;;
56005;SDS011;41888;44.696;10.522;2022-10-16T09:24:25;21.23;;;13.13;;
56005;SDS011;41888;44.696;10.522;2022-10-16T09:26:52;23.48;;;12.88;;
56005;SDS011;41888;44.696;10.522;2022-10-16T09:29:19;18.40;;;13.73;;
56005;SDS011;41888;44.696;10.522;2022-10-16T09:31:47;17.92;;;12.35;;
56005;SDS011;41888;44.696;10.522;2022-10-16T09:34:35;22.63;;;13.32;;
56005;SDS011;41888;44.696;10.522;2022-10-16T09:37:03;20.48;;;13.48;;
56005;SDS011;41888;44.696;10.522;2022-10-16T09:39:49;17.23;;;11.82;;
56005;SDS011;41888;44.696;10.522;2022-10-16T09:42:17;17.80;;;11.50;;
56005;SDS011;41888;44.696;10.522;2022-10-16T09:44:47;18.33;;;13.27;;
56005;SDS011;41888;44.696;10.522;2022-10-16T09:47:19;19.08;;;12.23;;
56005;SDS011;41888;44.696;10.522;2022-10-16T09:52:19;18.42;;;11.32;;
56005;SDS011;41888;44.696;10.522;2022-10-16T09:54:52;21.63;;;12.65;;
56005;SDS011;41888;44.696;10.522;2022-10-16T09:57:20;21.73;;;12.85;;
56005;SDS011;41888;44.696;10.522;2022-10-16T09:59:51;22.08;;;13.10;;
56005;SDS011;41888;44.696;10.522;2022-10-16T10:02:35;18.30;;;12.15;;
56005;SDS011;41888;44.696;10.522;2022-10-16T10:05:17;19.73;;;12.60;;
56005;SDS011;41888;44.696;10.522;2022-10-16T10:07:58;19.90;;;13.43;;
56005;SDS011;41888;44.696;10.522;2022-10-16T10:10:29;19.52;;;12.98;;
56005;SDS011;41888;44.696;10.522;2022-10-16T10:12:57;25.08;;;14.38;;
56005;SDS011;41888;44.696;10.522;2022-10-16T10:15:24;20.88;;;12.35;;
56005;SDS011;41888;44.696;10.522;2022-10-16T10:17:58;23.63;;;13.95;;
56005;SDS011;41888;44.696;10.522;2022-10-16T10:22:59;22.98;;;13.13;;
56005;SDS011;41888;44.696;10.522;2022-10-16T10:30:48;19.80;;;13.55;;
56005;SDS011;41888;44.696;10.522;2022-10-16T10:33:57;27.33;;;14.23;;
56005;SDS011;41888;44.696;10.522;2022-10-16T10:36:39;22.58;;;14.68;;
56005;SDS011;41888;44.696;10.522;2022-10-16T10:55:10;21.80;;;13.88;;
56005;SDS011;41888;44.696;10.522;2022-10-16T11:11:40;26.67;;;14.32;;
56005;SDS011;41888;44.696;10.522;2022-10-16T11:14:26;20.85;;;13.77;;
56005;SDS011;41888;44.696;10.522;2022-10-16T11:17:01;21.30;;;13.63;;
56005;SDS011;41888;44.696;10.522;2022-10-16T11:19:34;20.48;;;13.20;;
56005;SDS011;41888;44.696;10.522;2022-10-16T11:22:24;19.52;;;14.07;;
56005;SDS011;41888;44.696;10.522;2022-10-16T11:25:05;17.98;;;12.55;;
56005;SDS011;41888;44.696;10.522;2022-10-16T11:27:49;23.90;;;13.80;;
56005;SDS011;41888;44.696;10.522;2022-10-16T11:35:34;21.45;;;13.45;;
56005;SDS011;41888;44.696;10.522;2022-10-16T11:38:10;20.27;;;12.40;;
56005;SDS011;41888;44.696;10.522;2022-10-16T11:43:43;19.98;;;12.55;;
56005;SDS011;41888;44.696;10.522;2022-10-16T11:46:20;18.50;;;11.85;;
56005;SDS011;41888;44.696;10.522;2022-10-16T11:48:54;20.52;;;11.95;;
56005;SDS011;41888;44.696;10.522;2022-10-16T11:51:36;15.93;;;11.10;;
56005;SDS011;41888;44.696;10.522;2022-10-16T11:57:11;20.02;;;13.13;;
56005;SDS011;41888;44.696;10.522;2022-10-16T11:59:59;20.75;;;12.98;;
56005;SDS011;41888;44.696;10.522;2022-10-16T12:02:38;17.63;;;12.10;;
56005;SDS011;41888;44.696;10.522;2022-10-16T12:08:13;16.42;;;10.65;;
56005;SDS011;41888;44.696;10.522;2022-10-16T12:10:42;16.15;;;9.35;;
56005;SDS011;41888;44.696;10.522;2022-10-16T12:16:07;21.27;;;13.13;;
56005;SDS011;41888;44.696;10.522;2022-10-16T12:18:37;21.23;;;13.02;;
56005;SDS011;41888;44.696;10.522;2022-10-16T12:21:11;23.83;;;13.73;;
56005;SDS011;41888;44.696;10.522;2022-10-16T12:23:54;23.05;;;12.73;;
56005;SDS011;41888;44.696;10.522;2022-10-16T12:26:28;17.17;;;11.25;;
56005;SDS011;41888;44.696;10.522;2022-10-16T12:28:56;17.45;;;11.63;;
56005;SDS011;41888;44.696;10.522;2022-10-16T12:31:43;19.60;;;11.43;;
56005;SDS011;41888;44.696;10.522;2022-10-16T12:34:45;19.00;;;11.07;;
56005;SDS011;41888;44.696;10.522;2022-10-16T12:37:14;18.10;;;11.00;;
56005;SDS011;41888;44.696;10.522;2022-10-16T12:39:47;15.02;;;10.00;;
56005;SDS011;41888;44.696;10.522;2022-10-16T12:44:55;16.02;;;10.75;;
56005;SDS011;41888;44.696;10.522;2022-10-16T12:50:26;20.10;;;11.30;;
56005;SDS011;41888;44.696;10.522;2022-10-16T12:52:56;19.58;;;11.70;;
56005;SDS011;41888;44.696;10.522;2022-10-16T12:55:23;19.27;;;11.50;;
56005;SDS011;41888;44.696;10.522;2022-10-16T12:58:00;20.45;;;11.77;;
56005;SDS011;41888;44.696;10.522;2022-10-16T13:22:40;18.02;;;11.70;;
56005;SDS011;41888;44.696;10.522;2022-10-16T13:28:07;18.83;;;11.70;;
56005;SDS011;41888;44.696;10.522;2022-10-16T13:30:51;20.73;;;11.20;;
56005;SDS011;41888;44.696;10.522;2022-10-16T13:35:55;16.08;;;9.95;;
56005;SDS011;41888;44.696;10.522;2022-10-16T13:38:24;18.95;;;9.68;;
56005;SDS011;41888;44.696;10.522;2022-10-16T13:41:02;15.23;;;9.63;;
56005;SDS011;41888;44.696;10.522;2022-10-16T13:46:17;15.13;;;9.35;;
56005;SDS011;41888;44.696;10.522;2022-10-16T13:48:55;18.85;;;10.95;;
56005;SDS011;41888;44.696;10.522;2022-10-16T13:51:23;15.80;;;9.45;;
56005;SDS011;41888;44.696;10.522;2022-10-16T13:53:49;16.63;;;10.30;;
56005;SDS011;41888;44.696;10.522;2022-10-16T13:56:17;18.40;;;10.35;;
56005;SDS011;41888;44.696;10.522;2022-10-16T13:58:45;15.75;;;9.57;;
56005;SDS011;41888;44.696;10.522;2022-10-16T14:03:43;18.45;;;10.32;;
56005;SDS011;41888;44.696;10.522;2022-10-16T14:06:14;18.27;;;10.95;;
56005;SDS011;41888;44.696;10.522;2022-10-16T14:08:43;16.30;;;10.50;;
56005;SDS011;41888;44.696;10.522;2022-10-16T14:11:19;14.93;;;9.82;;
56005;SDS011;41888;44.696;10.522;2022-10-16T14:13:49;15.00;;;10.02;;
56005;SDS011;41888;44.696;10.522;2022-10-16T14:16:25;17.42;;;10.93;;
56005;SDS011;41888;44.696;10.522;2022-10-16T14:18:56;16.00;;;10.32;;
56005;SDS011;41888;44.696;10.522;2022-10-16T14:21:23;15.35;;;11.10;;
56005;SDS011;41888;44.696;10.522;2022-10-16T14:23:51;22.52;;;11.85;;
56005;SDS011;41888;44.696;10.522;2022-10-16T14:26:19;21.35;;;11.00;;
56005;SDS011;41888;44.696;10.522;2022-10-16T14:28:48;17.75;;;10.75;;
56005;SDS011;41888;44.696;10.522;2022-10-16T14:31:27;18.90;;;11.35;;
56005;SDS011;41888;44.696;10.522;2022-10-16T14:33:57;19.73;;;11.35;;
56005;SDS011;41888;44.696;10.522;2022-10-16T14:36:25;17.38;;;11.02;;
56005;SDS011;41888;44.696;10.522;2022-10-16T14:38:58;16.30;;;10.65;;
56005;SDS011;41888;44.696;10.522;2022-10-16T14:41:31;21.73;;;10.25;;
56005;SDS011;41888;44.696;10.522;2022-10-16T14:44:06;15.27;;;9.10;;
56005;SDS011;41888;44.696;10.522;2022-10-16T14:46:36;14.40;;;9.55;;
56005;SDS011;41888;44.696;10.522;2022-10-16T14:49:15;14.48;;;9.32;;
56005;SDS011;41888;44.696;10.522;2022-10-16T14:51:45;14.32;;;8.98;;
56005;SDS011;41888;44.696;10.522;2022-10-16T14:54:16;15.30;;;10.05;;
56005;SDS011;41888;44.696;10.522;2022-10-16T15:01:47;16.70;;;10.18;;
56005;SDS011;41888;44.696;10.522;2022-10-16T15:04:13;14.95;;;9.63;;
56005;SDS011;41888;44.696;10.522;2022-10-16T15:06:40;17.05;;;10.65;;
56005;SDS011;41888;44.696;10.522;2022-10-16T15:09:07;19.40;;;10.50;;
56005;SDS011;41888;44.696;10.522;2022-10-16T15:11:33;19.23;;;11.52;;
56005;SDS011;41888;44.696;10.522;2022-10-16T15:13:59;16.88;;;9.75;;
56005;SDS011;41888;44.696;10.522;2022-10-16T15:16:26;13.13;;;9.23;;
56005;SDS011;41888;44.696;10.522;2022-10-16T15:18:52;12.30;;;7.72;;
56005;SDS011;41888;44.696;10.522;2022-10-16T15:21:27;13.65;;;8.77;;
56005;SDS011;41888;44.696;10.522;2022-10-16T15:23:55;12.93;;;8.63;;
56005;SDS011;41888;44.696;10.522;2022-10-16T15:26:23;18.10;;;10.05;;
56005;SDS011;41888;44.696;10.522;2022-10-16T15:28:50;16.13;;;9.52;;
56005;SDS011;41888;44.696;10.522;2022-10-16T15:31:16;16.42;;;8.82;;
56005;SDS011;41888;44.696;10.522;2022-10-16T15:33:42;14.35;;;9.35;;
56005;SDS011;41888;44.696;10.522;2022-10-16T15:36:12;13.05;;;8.20;;
56005;SDS011;41888;44.696;10.522;2022-10-16T15:38:38;15.15;;;8.80;;
56005;SDS011;41888;44.696;10.522;2022-10-16T15:41:04;12.43;;;8.10;;
56005;SDS011;41888;44.696;10.522;2022-10-16T15:43:31;11.40;;;8.00;;
56005;SDS011;41888;44.696;10.522;2022-10-16T15:46:01;16.15;;;9.38;;
56005;SDS011;41888;44.696;10.522;2022-10-16T15:48:30;16.75;;;9.80;;
56005;SDS011;41888;44.696;10.522;2022-10-16T15:50:56;12.82;;;7.30;;
56005;SDS011;41888;44.696;10.522;2022-10-16T15:53:23;15.80;;;8.60;;
56005;SDS011;41888;44.696;10.522;2022-10-16T15:55:49;15.20;;;9.60;;
56005;SDS011;41888;44.696;10.522;2022-10-16T15:58:16;15.45;;;9.70;;
56005;SDS011;41888;44.696;10.522;2022-10-16T16:00:42;15.63;;;10.27;;
56005;SDS011;41888;44.696;10.522;2022-10-16T16:03:08;14.45;;;8.23;;
56005;SDS011;41888;44.696;10.522;2022-10-16T16:05:37;13.63;;;9.35;;
56005;SDS011;41888;44.696;10.522;2022-10-16T16:08:05;13.13;;;8.68;;
56005;SDS011;41888;44.696;10.522;2022-10-16T16:10:31;13.23;;;8.73;;
56005;SDS011;41888;44.696;10.522;2022-10-16T16:12:57;12.45;;;8.52;;
56005;SDS011;41888;44.696;10.522;2022-10-16T16:15:24;12.35;;;8.43;;
56005;SDS011;41888;44.696;10.522;2022-10-16T16:17:50;15.48;;;8.82;;
56005;SDS011;41888;44.696;10.522;2022-10-16T16:20:16;13.00;;;8.45;;
56005;SDS011;41888;44.696;10.522;2022-10-16T16:22:42;11.00;;;7.13;;
56005;SDS011;41888;44.696;10.522;2022-10-16T16:25:08;11.73;;;6.72;;
56005;SDS011;41888;44.696;10.522;2022-10-16T16:27:35;11.95;;;8.27;;
56005;SDS011;41888;44.696;10.522;2022-10-16T16:30:03;10.55;;;7.25;;
56005;SDS011;41888;44.696;10.522;2022-10-16T16:32:34;17.40;;;7.72;;
56005;SDS011;41888;44.696;10.522;2022-10-16T16:35:01;13.02;;;7.40;;